sensor_id;sensor_type;location;lat;lon;timestamp;P1;P2;P0
51258;PMS7003;37327;54.254;18.504;2023-02-12T00:02:40;0;0;0
51258;PMS7003;37327;54.254;18.504;2023-02-12T00:05:46;0;0;0
51258;PMS7003;37327;54.254;18.504;2023-02-12T00:08:54;0;0;0
51258;PMS7003;37327;54.254;18.504;2023-02-12T00:12:02;0;0;0
51258;PMS7003;37327;54.254;18.504;2023-02-12T00:15:09;2;0;0
51258;PMS7003;37327;54.254;18.504;2023-02-12T00:18:16;0;0;0
51258;PMS7003;37327;54.254;18.504;2023-02-12T00:21:23;0;0;0
51258;PMS7003;37327;54.254;18.504;2023-02-12T00:24:31;0;0;0
51258;PMS7003;37327;54.254;18.504;2023-02-12T00:27:37;0;0;0
51258;PMS7003;37327;54.254;18.504;2023-02-12T00:30:44;0;0;0
51258;PMS7003;37327;54.254;18.504;2023-02-12T00:33:52;0;0;0
51258;PMS7003;37327;54.254;18.504;2023-02-12T00:36:59;0;0;0
51258;PMS7003;37327;54.254;18.504;2023-02-12T00:40:06;0;0;0
51258;PMS7003;37327;54.254;18.504;2023-02-12T00:43:14;0;0;0
51258;PMS7003;37327;54.254;18.504;2023-02-12T00:46:21;0;0;0
51258;PMS7003;37327;54.254;18.504;2023-02-12T00:49:29;0;0;0
51258;PMS7003;37327;54.254;18.504;2023-02-12T00:52:40;0;0;0
51258;PMS7003;37327;54.254;18.504;2023-02-12T00:55:47;0;0;0
51258;PMS7003;37327;54.254;18.504;2023-02-12T00:58:54;0;0;0
51258;PMS7003;37327;54.254;18.504;2023-02-12T01:02:02;0;0;0
51258;PMS7003;37327;54.254;18.504;2023-02-12T01:05:09;0;0;0
51258;PMS7003;37327;54.254;18.504;2023-02-12T01:08:16;0;0;0
51258;PMS7003;37327;54.254;18.504;2023-02-12T01:11:23;0;0;0
51258;PMS7003;37327;54.254;18.504;2023-02-12T01:14:30;0;0;0
51258;PMS7003;37327;54.254;18.504;2023-02-12T01:17:37;0;0;0
51258;PMS7003;37327;54.254;18.504;2023-02-12T01:20:44;0;0;0
51258;PMS7003;37327;54.254;18.504;2023-02-12T01:23:50;0;0;0
51258;PMS7003;37327;54.254;18.504;2023-02-12T01:26:57;0;0;0
51258;PMS7003;37327;54.254;18.504;2023-02-12T01:30:05;0;0;0
51258;PMS7003;37327;54.254;18.504;2023-02-12T01:33:14;0;0;0
51258;PMS7003;37327;54.254;18.504;2023-02-12T01:36:21;0;0;0
51258;PMS7003;37327;54.254;18.504;2023-02-12T01:39:29;0;0;0
51258;PMS7003;37327;54.254;18.504;2023-02-12T01:42:35;0;0;0
51258;PMS7003;37327;54.254;18.504;2023-02-12T01:45:45;0;0;0
51258;PMS7003;37327;54.254;18.504;2023-02-12T01:48:55;0;0;0
51258;PMS7003;37327;54.254;18.504;2023-02-12T01:52:12;0;0;0
51258;PMS7003;37327;54.254;18.504;2023-02-12T01:55:19;0;0;0
51258;PMS7003;37327;54.254;18.504;2023-02-12T01:58:29;0;0;0
51258;PMS7003;37327;54.254;18.504;2023-02-12T02:02:48;0;0;0
51258;PMS7003;37327;54.254;18.504;2023-02-12T02:06:05;0;0;0
51258;PMS7003;37327;54.254;18.504;2023-02-12T02:09:17;0;0;0
51258;PMS7003;37327;54.254;18.504;2023-02-12T02:12:26;1;0;0
51258;PMS7003;37327;54.254;18.504;2023-02-12T02:15:46;0;0;0
51258;PMS7003;37327;54.254;18.504;2023-02-12T02:19:07;0;0;0
51258;PMS7003;37327;54.254;18.504;2023-02-12T02:22:17;0;0;0
51258;PMS7003;37327;54.254;18.504;2023-02-12T02:25:42;0;0;0
51258;PMS7003;37327;54.254;18.504;2023-02-12T02:45:33;0;0;0
51258;PMS7003;37327;54.254;18.504;2023-02-12T02:48:49;0;0;0
51258;PMS7003;37327;54.254;18.504;2023-02-12T02:52:02;0;0;0
51258;PMS7003;37327;54.254;18.504;2023-02-12T02:55:14;0;0;0
51258;PMS7003;37327;54.254;18.504;2023-02-12T02:58:25;0;0;0
51258;PMS7003;37327;54.254;18.504;2023-02-12T03:01:41;0;0;0
51258;PMS7003;37327;54.254;18.504;2023-02-12T03:05:01;1;0;0
51258;PMS7003;37327;54.254;18.504;2023-02-12T03:08:18;0;0;0
51258;PMS7003;37327;54.254;18.504;2023-02-12T03:11:30;0;0;0
51258;PMS7003;37327;54.254;18.504;2023-02-12T03:17:57;1;0;0
51258;PMS7003;37327;54.254;18.504;2023-02-12T03:21:08;0;0;0
51258;PMS7003;37327;54.254;18.504;2023-02-12T03:27:41;1;0;0
51258;PMS7003;37327;54.254;18.504;2023-02-12T03:37:32;0;0;0
51258;PMS7003;37327;54.254;18.504;2023-02-12T03:44:05;0;0;0
51258;PMS7003;37327;54.254;18.504;2023-02-12T03:47:32;0;0;0
51258;PMS7003;37327;54.254;18.504;2023-02-12T03:50:44;0;0;0
51258;PMS7003;37327;54.254;18.504;2023-02-12T03:53:57;0;0;0
51258;PMS7003;37327;54.254;18.504;2023-02-12T03:57:10;1;0;0
51258;PMS7003;37327;54.254;18.504;2023-02-12T04:00:22;0;0;0
51258;PMS7003;37327;54.254;18.504;2023-02-12T04:03:30;1;0;0
51258;PMS7003;37327;54.254;18.504;2023-02-12T04:06:38;0;0;0
51258;PMS7003;37327;54.254;18.504;2023-02-12T04:09:46;0;0;0
51258;PMS7003;37327;54.254;18.504;2023-02-12T04:12:54;0;0;0
51258;PMS7003;37327;54.254;18.504;2023-02-12T04:19:32;0;0;0
51258;PMS7003;37327;54.254;18.504;2023-02-12T04:26:08;0;0;0
51258;PMS7003;37327;54.254;18.504;2023-02-12T04:36:05;0;0;0
51258;PMS7003;37327;54.254;18.504;2023-02-12T04:39:21;0;0;0
51258;PMS7003;37327;54.254;18.504;2023-02-12T04:42:31;0;0;0
51258;PMS7003;37327;54.254;18.504;2023-02-12T04:45:49;0;0;0
51258;PMS7003;37327;54.254;18.504;2023-02-12T04:48:57;0;0;0
51258;PMS7003;37327;54.254;18.504;2023-02-12T04:52:05;0;0;0
51258;PMS7003;37327;54.254;18.504;2023-02-12T04:55:13;0;0;0
51258;PMS7003;37327;54.254;18.504;2023-02-12T04:58:20;0;0;0
51258;PMS7003;37327;54.254;18.504;2023-02-12T05:01:27;0;0;0
51258;PMS7003;37327;54.254;18.504;2023-02-12T05:04:34;0;0;0
51258;PMS7003;37327;54.254;18.504;2023-02-12T05:07:41;0;0;0
51258;PMS7003;37327;54.254;18.504;2023-02-12T05:10:48;2;0;0
51258;PMS7003;37327;54.254;18.504;2023-02-12T05:13:55;0;0;0
51258;PMS7003;37327;54.254;18.504;2023-02-12T05:17:02;0;0;0
51258;PMS7003;37327;54.254;18.504;2023-02-12T05:20:09;0;0;0
51258;PMS7003;37327;54.254;18.504;2023-02-12T05:23:17;0;0;0
51258;PMS7003;37327;54.254;18.504;2023-02-12T05:26:23;0;0;0
51258;PMS7003;37327;54.254;18.504;2023-02-12T05:29:30;0;0;0
51258;PMS7003;37327;54.254;18.504;2023-02-12T05:32:37;0;0;0
51258;PMS7003;37327;54.254;18.504;2023-02-12T05:35:44;0;0;0
51258;PMS7003;37327;54.254;18.504;2023-02-12T05:38:51;0;0;0
51258;PMS7003;37327;54.254;18.504;2023-02-12T05:42:02;0;0;0
51258;PMS7003;37327;54.254;18.504;2023-02-12T05:45:09;0;0;0
51258;PMS7003;37327;54.254;18.504;2023-02-12T05:48:16;0;0;0
51258;PMS7003;37327;54.254;18.504;2023-02-12T05:51:24;0;0;0
51258;PMS7003;37327;54.254;18.504;2023-02-12T05:54:32;0;0;0
51258;PMS7003;37327;54.254;18.504;2023-02-12T05:57:39;0;0;0
51258;PMS7003;37327;54.254;18.504;2023-02-12T06:00:45;0;0;0
51258;PMS7003;37327;54.254;18.504;2023-02-12T06:03:53;0;0;0
51258;PMS7003;37327;54.254;18.504;2023-02-12T06:07:00;0;0;0
51258;PMS7003;37327;54.254;18.504;2023-02-12T06:10:07;0;0;0
51258;PMS7003;37327;54.254;18.504;2023-02-12T06:13:15;0;0;0
51258;PMS7003;37327;54.254;18.504;2023-02-12T06:16:23;0;0;0
51258;PMS7003;37327;54.254;18.504;2023-02-12T06:19:31;0;0;0
51258;PMS7003;37327;54.254;18.504;2023-02-12T06:22:39;0;0;0
51258;PMS7003;37327;54.254;18.504;2023-02-12T06:25:46;0;0;0
51258;PMS7003;37327;54.254;18.504;2023-02-12T06:28:54;0;0;0
51258;PMS7003;37327;54.254;18.504;2023-02-12T06:32:01;0;0;0
51258;PMS7003;37327;54.254;18.504;2023-02-12T06:35:08;1;0;0
51258;PMS7003;37327;54.254;18.504;2023-02-12T06:38:15;0;0;0
51258;PMS7003;37327;54.254;18.504;2023-02-12T06:41:22;0;0;0
51258;PMS7003;37327;54.254;18.504;2023-02-12T06:44:30;0;0;0
51258;PMS7003;37327;54.254;18.504;2023-02-12T06:47:37;0;0;0
51258;PMS7003;37327;54.254;18.504;2023-02-12T06:50:43;0;0;0
51258;PMS7003;37327;54.254;18.504;2023-02-12T06:53:51;0;0;0
51258;PMS7003;37327;54.254;18.504;2023-02-12T06:56:59;0;0;0
51258;PMS7003;37327;54.254;18.504;2023-02-12T07:00:06;0;0;0
51258;PMS7003;37327;54.254;18.504;2023-02-12T07:03:14;0;0;0
51258;PMS7003;37327;54.254;18.504;2023-02-12T07:06:21;3;0;0
51258;PMS7003;37327;54.254;18.504;2023-02-12T07:09:29;11;4;3
51258;PMS7003;37327;54.254;18.504;2023-02-12T07:12:38;11;5;3
51258;PMS7003;37327;54.254;18.504;2023-02-12T07:15:44;3;2;1
51258;PMS7003;37327;54.254;18.504;2023-02-12T07:18:51;3;1;0
51258;PMS7003;37327;54.254;18.504;2023-02-12T07:21:58;0;0;0
51258;PMS7003;37327;54.254;18.504;2023-02-12T07:25:07;0;0;0
51258;PMS7003;37327;54.254;18.504;2023-02-12T07:28:14;0;0;0
51258;PMS7003;37327;54.254;18.504;2023-02-12T07:31:22;0;0;0
51258;PMS7003;37327;54.254;18.504;2023-02-12T07:34:29;1;0;0
51258;PMS7003;37327;54.254;18.504;2023-02-12T07:37:36;3;0;0
51258;PMS7003;37327;54.254;18.504;2023-02-12T07:40:43;1;0;0
51258;PMS7003;37327;54.254;18.504;2023-02-12T07:43:53;0;0;0
51258;PMS7003;37327;54.254;18.504;2023-02-12T07:47:02;3;3;2
51258;PMS7003;37327;54.254;18.504;2023-02-12T07:50:10;3;3;2
51258;PMS7003;37327;54.254;18.504;2023-02-12T07:53:17;3;2;1
51258;PMS7003;37327;54.254;18.504;2023-02-12T07:56:25;2;0;0
51258;PMS7003;37327;54.254;18.504;2023-02-12T07:59:38;2;1;1
51258;PMS7003;37327;54.254;18.504;2023-02-12T08:02:49;1;0;0
51258;PMS7003;37327;54.254;18.504;2023-02-12T08:05:57;1;0;0
51258;PMS7003;37327;54.254;18.504;2023-02-12T08:09:06;0;0;0
51258;PMS7003;37327;54.254;18.504;2023-02-12T08:12:17;0;0;0
51258;PMS7003;37327;54.254;18.504;2023-02-12T08:15:25;0;0;0
51258;PMS7003;37327;54.254;18.504;2023-02-12T08:18:32;0;0;0
51258;PMS7003;37327;54.254;18.504;2023-02-12T08:21:40;0;0;0
51258;PMS7003;37327;54.254;18.504;2023-02-12T08:24:48;0;0;0
51258;PMS7003;37327;54.254;18.504;2023-02-12T08:27:55;0;0;0
51258;PMS7003;37327;54.254;18.504;2023-02-12T08:31:02;0;0;0
51258;PMS7003;37327;54.254;18.504;2023-02-12T08:34:21;1;0;0
51258;PMS7003;37327;54.254;18.504;2023-02-12T08:37:25;0;0;0
51258;PMS7003;37327;54.254;18.504;2023-02-12T08:40:32;0;0;0
51258;PMS7003;37327;54.254;18.504;2023-02-12T08:43:39;0;0;0
51258;PMS7003;37327;54.254;18.504;2023-02-12T08:46:50;0;0;0
51258;PMS7003;37327;54.254;18.504;2023-02-12T08:50:00;0;0;0
51258;PMS7003;37327;54.254;18.504;2023-02-12T08:53:07;1;0;0
51258;PMS7003;37327;54.254;18.504;2023-02-12T08:56:15;2;0;0
51258;PMS7003;37327;54.254;18.504;2023-02-12T08:59:23;0;0;0
51258;PMS7003;37327;54.254;18.504;2023-02-12T09:02:30;1;1;0
51258;PMS7003;37327;54.254;18.504;2023-02-12T09:05:39;2;0;0
51258;PMS7003;37327;54.254;18.504;2023-02-12T09:08:46;0;0;0
51258;PMS7003;37327;54.254;18.504;2023-02-12T09:11:54;2;1;1
51258;PMS7003;37327;54.254;18.504;2023-02-12T09:15:01;5;2;2
51258;PMS7003;37327;54.254;18.504;2023-02-12T09:18:09;3;2;2
51258;PMS7003;37327;54.254;18.504;2023-02-12T09:21:17;5;4;3
51258;PMS7003;37327;54.254;18.504;2023-02-12T09:24:25;4;3;2
51258;PMS7003;37327;54.254;18.504;2023-02-12T09:27:32;4;3;3
51258;PMS7003;37327;54.254;18.504;2023-02-12T09:30:39;8;5;3
51258;PMS7003;37327;54.254;18.504;2023-02-12T09:33:46;4;3;3
51258;PMS7003;37327;54.254;18.504;2023-02-12T09:36:54;4;2;2
51258;PMS7003;37327;54.254;18.504;2023-02-12T09:40:00;4;3;3
51258;PMS7003;37327;54.254;18.504;2023-02-12T09:43:14;3;2;2
51258;PMS7003;37327;54.254;18.504;2023-02-12T09:49:55;3;2;2
51258;PMS7003;37327;54.254;18.504;2023-02-12T09:53:13;4;3;2
51258;PMS7003;37327;54.254;18.504;2023-02-12T09:56:23;2;1;1
51258;PMS7003;37327;54.254;18.504;2023-02-12T09:59:42;3;2;1
51258;PMS7003;37327;54.254;18.504;2023-02-12T10:02:51;1;1;0
51258;PMS7003;37327;54.254;18.504;2023-02-12T10:06:18;0;0;0
51258;PMS7003;37327;54.254;18.504;2023-02-12T10:09:24;3;3;2
51258;PMS7003;37327;54.254;18.504;2023-02-12T10:16:05;3;1;1
51258;PMS7003;37327;54.254;18.504;2023-02-12T10:19:23;2;2;1
51258;PMS7003;37327;54.254;18.504;2023-02-12T10:26:07;2;2;2
51258;PMS7003;37327;54.254;18.504;2023-02-12T10:32:33;2;2;2
51258;PMS7003;37327;54.254;18.504;2023-02-12T10:39:02;2;1;1
51258;PMS7003;37327;54.254;18.504;2023-02-12T10:42:21;1;1;1
51258;PMS7003;37327;54.254;18.504;2023-02-12T10:45:37;3;2;2
51258;PMS7003;37327;54.254;18.504;2023-02-12T10:48:50;2;1;0
51258;PMS7003;37327;54.254;18.504;2023-02-12T10:58:56;5;1;1
51258;PMS7003;37327;54.254;18.504;2023-02-12T11:01:58;1;1;1
51258;PMS7003;37327;54.254;18.504;2023-02-12T11:08:30;4;2;2
51258;PMS7003;37327;54.254;18.504;2023-02-12T11:11:39;3;3;3
51258;PMS7003;37327;54.254;18.504;2023-02-12T11:14:48;7;4;2
51258;PMS7003;37327;54.254;18.504;2023-02-12T11:17:59;4;4;3
51258;PMS7003;37327;54.254;18.504;2023-02-12T11:21:10;4;3;3
51258;PMS7003;37327;54.254;18.504;2023-02-12T11:27:37;4;4;3
51258;PMS7003;37327;54.254;18.504;2023-02-12T11:37:21;4;4;3
51258;PMS7003;37327;54.254;18.504;2023-02-12T11:40:31;3;3;3
51258;PMS7003;37327;54.254;18.504;2023-02-12T11:43:39;5;4;4
51258;PMS7003;37327;54.254;18.504;2023-02-12T11:46:46;1;0;0
51258;PMS7003;37327;54.254;18.504;2023-02-12T11:53:20;5;3;3
51258;PMS7003;37327;54.254;18.504;2023-02-12T11:59:49;7;6;5
51258;PMS7003;37327;54.254;18.504;2023-02-12T12:03:05;8;7;6
51258;PMS7003;37327;54.254;18.504;2023-02-12T12:12:57;5;5;5
51258;PMS7003;37327;54.254;18.504;2023-02-12T12:16:10;6;5;5
51258;PMS7003;37327;54.254;18.504;2023-02-12T12:19:37;4;4;4
51258;PMS7003;37327;54.254;18.504;2023-02-12T12:26:34;7;4;4
51258;PMS7003;37327;54.254;18.504;2023-02-12T12:29:40;6;4;4
51258;PMS7003;37327;54.254;18.504;2023-02-12T12:32:50;6;5;5
51258;PMS7003;37327;54.254;18.504;2023-02-12T12:39:23;4;4;3
51258;PMS7003;37327;54.254;18.504;2023-02-12T12:42:42;2;2;1
51258;PMS7003;37327;54.254;18.504;2023-02-12T12:59:19;6;3;3
51258;PMS7003;37327;54.254;18.504;2023-02-12T13:02:40;7;4;4
51258;PMS7003;37327;54.254;18.504;2023-02-12T13:12:29;2;1;1
51258;PMS7003;37327;54.254;18.504;2023-02-12T13:16:02;2;2;1
51258;PMS7003;37327;54.254;18.504;2023-02-12T13:35:44;3;3;3
51258;PMS7003;37327;54.254;18.504;2023-02-12T13:45:39;3;1;1
51258;PMS7003;37327;54.254;18.504;2023-02-12T13:52:16;4;1;1
51258;PMS7003;37327;54.254;18.504;2023-02-12T13:58:51;5;3;2
51258;PMS7003;37327;54.254;18.504;2023-02-12T14:02:04;3;3;1
51258;PMS7003;37327;54.254;18.504;2023-02-12T14:05:19;1;1;0
51258;PMS7003;37327;54.254;18.504;2023-02-12T14:08:36;3;2;2
51258;PMS7003;37327;54.254;18.504;2023-02-12T14:11:46;1;1;1
51258;PMS7003;37327;54.254;18.504;2023-02-12T14:21:34;2;1;1
51258;PMS7003;37327;54.254;18.504;2023-02-12T14:24:48;1;0;0
51258;PMS7003;37327;54.254;18.504;2023-02-12T14:28:21;2;1;1
51258;PMS7003;37327;54.254;18.504;2023-02-12T14:34:37;3;0;0
51258;PMS7003;37327;54.254;18.504;2023-02-12T14:37:45;3;1;1
51258;PMS7003;37327;54.254;18.504;2023-02-12T14:40:52;1;1;1
51258;PMS7003;37327;54.254;18.504;2023-02-12T14:50:55;1;1;1
51258;PMS7003;37327;54.254;18.504;2023-02-12T14:54:10;0;0;0
51258;PMS7003;37327;54.254;18.504;2023-02-12T14:57:40;1;1;0
51258;PMS7003;37327;54.254;18.504;2023-02-12T15:00:44;0;0;0
51258;PMS7003;37327;54.254;18.504;2023-02-12T15:03:54;2;1;1
51258;PMS7003;37327;54.254;18.504;2023-02-12T15:07:07;0;0;0
51258;PMS7003;37327;54.254;18.504;2023-02-12T15:10:19;1;1;1
51258;PMS7003;37327;54.254;18.504;2023-02-12T15:13:30;0;0;0
51258;PMS7003;37327;54.254;18.504;2023-02-12T15:20:12;0;0;0
51258;PMS7003;37327;54.254;18.504;2023-02-12T15:26:46;0;0;0
51258;PMS7003;37327;54.254;18.504;2023-02-12T15:29:56;0;0;0
51258;PMS7003;37327;54.254;18.504;2023-02-12T15:33:03;0;0;0
51258;PMS7003;37327;54.254;18.504;2023-02-12T15:42:52;0;0;0
51258;PMS7003;37327;54.254;18.504;2023-02-12T15:46:05;0;0;0
51258;PMS7003;37327;54.254;18.504;2023-02-12T15:49:18;0;0;0
51258;PMS7003;37327;54.254;18.504;2023-02-12T15:52:29;0;0;0
51258;PMS7003;37327;54.254;18.504;2023-02-12T15:55:42;0;0;0
51258;PMS7003;37327;54.254;18.504;2023-02-12T15:58:55;0;0;0
51258;PMS7003;37327;54.254;18.504;2023-02-12T16:05:24;0;0;0
51258;PMS7003;37327;54.254;18.504;2023-02-12T16:08:32;0;0;0
51258;PMS7003;37327;54.254;18.504;2023-02-12T16:11:41;0;0;0
51258;PMS7003;37327;54.254;18.504;2023-02-12T16:14:52;0;0;0
51258;PMS7003;37327;54.254;18.504;2023-02-12T16:18:00;0;0;0
51258;PMS7003;37327;54.254;18.504;2023-02-12T16:21:14;0;0;0
51258;PMS7003;37327;54.254;18.504;2023-02-12T16:24:29;1;1;1
51258;PMS7003;37327;54.254;18.504;2023-02-12T16:27:47;0;0;0
51258;PMS7003;37327;54.254;18.504;2023-02-12T16:34:25;0;0;0
51258;PMS7003;37327;54.254;18.504;2023-02-12T16:47:25;0;0;0
51258;PMS7003;37327;54.254;18.504;2023-02-12T16:50:34;1;0;0
51258;PMS7003;37327;54.254;18.504;2023-02-12T16:53:44;0;0;0
51258;PMS7003;37327;54.254;18.504;2023-02-12T16:56:53;0;0;0
51258;PMS7003;37327;54.254;18.504;2023-02-12T17:00:00;0;0;0
51258;PMS7003;37327;54.254;18.504;2023-02-12T17:03:11;1;0;0
51258;PMS7003;37327;54.254;18.504;2023-02-12T17:06:23;0;0;0
51258;PMS7003;37327;54.254;18.504;2023-02-12T17:09:32;1;0;0
51258;PMS7003;37327;54.254;18.504;2023-02-12T17:15:58;0;0;0
51258;PMS7003;37327;54.254;18.504;2023-02-12T17:19:08;0;0;0
51258;PMS7003;37327;54.254;18.504;2023-02-12T17:22:20;1;0;0
51258;PMS7003;37327;54.254;18.504;2023-02-12T17:25:29;0;0;0
51258;PMS7003;37327;54.254;18.504;2023-02-12T17:28:40;1;1;1
51258;PMS7003;37327;54.254;18.504;2023-02-12T17:31:47;0;0;0
51258;PMS7003;37327;54.254;18.504;2023-02-12T17:34:58;0;0;0
51258;PMS7003;37327;54.254;18.504;2023-02-12T17:38:05;3;0;0
51258;PMS7003;37327;54.254;18.504;2023-02-12T17:41:12;0;0;0
51258;PMS7003;37327;54.254;18.504;2023-02-12T17:44:19;2;2;1
51258;PMS7003;37327;54.254;18.504;2023-02-12T17:47:26;1;1;1
51258;PMS7003;37327;54.254;18.504;2023-02-12T17:50:35;0;0;0
51258;PMS7003;37327;54.254;18.504;2023-02-12T17:53:43;4;1;1
51258;PMS7003;37327;54.254;18.504;2023-02-12T17:56:50;1;1;1
51258;PMS7003;37327;54.254;18.504;2023-02-12T17:59:57;2;2;1
51258;PMS7003;37327;54.254;18.504;2023-02-12T18:03:04;1;0;0
51258;PMS7003;37327;54.254;18.504;2023-02-12T18:06:11;0;0;0
51258;PMS7003;37327;54.254;18.504;2023-02-12T18:09:21;2;1;1
51258;PMS7003;37327;54.254;18.504;2023-02-12T18:12:29;0;0;0
51258;PMS7003;37327;54.254;18.504;2023-02-12T18:15:38;1;1;1
51258;PMS7003;37327;54.254;18.504;2023-02-12T18:18:45;1;1;1
51258;PMS7003;37327;54.254;18.504;2023-02-12T18:21:54;1;1;1
51258;PMS7003;37327;54.254;18.504;2023-02-12T18:25:01;3;1;1
51258;PMS7003;37327;54.254;18.504;2023-02-12T18:28:09;3;1;1
51258;PMS7003;37327;54.254;18.504;2023-02-12T18:31:17;2;2;2
51258;PMS7003;37327;54.254;18.504;2023-02-12T18:34:25;1;1;1
51258;PMS7003;37327;54.254;18.504;2023-02-12T18:37:32;3;1;1
51258;PMS7003;37327;54.254;18.504;2023-02-12T18:40:39;2;1;1
51258;PMS7003;37327;54.254;18.504;2023-02-12T18:43:47;1;1;1
51258;PMS7003;37327;54.254;18.504;2023-02-12T18:46:54;3;2;2
51258;PMS7003;37327;54.254;18.504;2023-02-12T18:50:05;1;1;1
51258;PMS7003;37327;54.254;18.504;2023-02-12T18:53:12;3;3;2
51258;PMS7003;37327;54.254;18.504;2023-02-12T18:56:19;1;1;1
51258;PMS7003;37327;54.254;18.504;2023-02-12T18:59:26;3;2;1
51258;PMS7003;37327;54.254;18.504;2023-02-12T19:02:33;2;1;1
51258;PMS7003;37327;54.254;18.504;2023-02-12T19:05:40;1;1;1
51258;PMS7003;37327;54.254;18.504;2023-02-12T19:08:48;3;1;0
51258;PMS7003;37327;54.254;18.504;2023-02-12T19:12:00;1;0;0
51258;PMS7003;37327;54.254;18.504;2023-02-12T19:15:07;0;0;0
51258;PMS7003;37327;54.254;18.504;2023-02-12T19:18:14;0;0;0
51258;PMS7003;37327;54.254;18.504;2023-02-12T19:21:22;0;0;0
51258;PMS7003;37327;54.254;18.504;2023-02-12T19:24:33;0;0;0
51258;PMS7003;37327;54.254;18.504;2023-02-12T19:27:40;1;1;1
51258;PMS7003;37327;54.254;18.504;2023-02-12T19:30:47;0;0;0
51258;PMS7003;37327;54.254;18.504;2023-02-12T19:33:55;1;1;1
51258;PMS7003;37327;54.254;18.504;2023-02-12T19:37:05;1;1;1
51258;PMS7003;37327;54.254;18.504;2023-02-12T19:40:13;3;2;2
51258;PMS7003;37327;54.254;18.504;2023-02-12T19:43:20;1;1;1
51258;PMS7003;37327;54.254;18.504;2023-02-12T19:46:28;2;1;1
51258;PMS7003;37327;54.254;18.504;2023-02-12T19:49:36;1;1;1
51258;PMS7003;37327;54.254;18.504;2023-02-12T19:52:44;3;1;1
51258;PMS7003;37327;54.254;18.504;2023-02-12T19:55:51;1;1;1
51258;PMS7003;37327;54.254;18.504;2023-02-12T19:58:58;2;1;1
51258;PMS7003;37327;54.254;18.504;2023-02-12T20:02:05;3;2;2
51258;PMS7003;37327;54.254;18.504;2023-02-12T20:05:12;1;1;1
51258;PMS7003;37327;54.254;18.504;2023-02-12T20:08:19;3;1;1
51258;PMS7003;37327;54.254;18.504;2023-02-12T20:11:27;1;1;1
51258;PMS7003;37327;54.254;18.504;2023-02-12T20:14:39;1;1;1
51258;PMS7003;37327;54.254;18.504;2023-02-12T20:17:46;2;1;1
51258;PMS7003;37327;54.254;18.504;2023-02-12T20:20:52;3;1;1
51258;PMS7003;37327;54.254;18.504;2023-02-12T20:24:00;2;1;1
51258;PMS7003;37327;54.254;18.504;2023-02-12T20:27:07;1;0;0
51258;PMS7003;37327;54.254;18.504;2023-02-12T20:30:16;2;1;1
51258;PMS7003;37327;54.254;18.504;2023-02-12T20:33:24;0;0;0
51258;PMS7003;37327;54.254;18.504;2023-02-12T20:36:32;1;1;1
51258;PMS7003;37327;54.254;18.504;2023-02-12T20:39:42;1;1;0
51258;PMS7003;37327;54.254;18.504;2023-02-12T20:42:49;0;0;0
51258;PMS7003;37327;54.254;18.504;2023-02-12T20:46:02;2;1;1
51258;PMS7003;37327;54.254;18.504;2023-02-12T20:49:12;1;1;1
51258;PMS7003;37327;54.254;18.504;2023-02-12T20:52:21;1;1;1
51258;PMS7003;37327;54.254;18.504;2023-02-12T20:55:29;1;1;1
51258;PMS7003;37327;54.254;18.504;2023-02-12T20:58:38;1;1;1
51258;PMS7003;37327;54.254;18.504;2023-02-12T21:01:49;1;1;1
51258;PMS7003;37327;54.254;18.504;2023-02-12T21:04:56;2;1;1
51258;PMS7003;37327;54.254;18.504;2023-02-12T21:08:03;0;0;0
51258;PMS7003;37327;54.254;18.504;2023-02-12T21:11:12;1;0;0
51258;PMS7003;37327;54.254;18.504;2023-02-12T21:14:21;2;1;1
51258;PMS7003;37327;54.254;18.504;2023-02-12T21:17:27;1;1;1
51258;PMS7003;37327;54.254;18.504;2023-02-12T21:20:34;2;1;0
51258;PMS7003;37327;54.254;18.504;2023-02-12T21:23:42;1;0;0
51258;PMS7003;37327;54.254;18.504;2023-02-12T21:26:53;1;1;1
51258;PMS7003;37327;54.254;18.504;2023-02-12T21:30:00;1;1;1
51258;PMS7003;37327;54.254;18.504;2023-02-12T21:33:07;0;0;0
51258;PMS7003;37327;54.254;18.504;2023-02-12T21:52:00;1;0;0
51258;PMS7003;37327;54.254;18.504;2023-02-12T21:55:11;0;0;0
51258;PMS7003;37327;54.254;18.504;2023-02-12T21:58:17;1;1;0
51258;PMS7003;37327;54.254;18.504;2023-02-12T22:01:27;2;1;0
51258;PMS7003;37327;54.254;18.504;2023-02-12T22:04:37;2;1;0
51258;PMS7003;37327;54.254;18.504;2023-02-12T22:07:47;5;1;1
51258;PMS7003;37327;54.254;18.504;2023-02-12T22:10:55;0;0;0
51258;PMS7003;37327;54.254;18.504;2023-02-12T22:14:01;0;0;0
51258;PMS7003;37327;54.254;18.504;2023-02-12T22:17:10;0;0;0
51258;PMS7003;37327;54.254;18.504;2023-02-12T22:20:17;1;1;1
51258;PMS7003;37327;54.254;18.504;2023-02-12T22:23:24;0;0;0
51258;PMS7003;37327;54.254;18.504;2023-02-12T22:26:31;1;0;0
51258;PMS7003;37327;54.254;18.504;2023-02-12T22:29:39;0;0;0
51258;PMS7003;37327;54.254;18.504;2023-02-12T22:32:45;1;0;0
51258;PMS7003;37327;54.254;18.504;2023-02-12T22:35:52;0;0;0
51258;PMS7003;37327;54.254;18.504;2023-02-12T22:38:59;0;0;0
51258;PMS7003;37327;54.254;18.504;2023-02-12T22:42:06;1;0;0
51258;PMS7003;37327;54.254;18.504;2023-02-12T22:45:14;0;0;0
51258;PMS7003;37327;54.254;18.504;2023-02-12T22:48:21;0;0;0
51258;PMS7003;37327;54.254;18.504;2023-02-12T22:51:29;1;0;0
51258;PMS7003;37327;54.254;18.504;2023-02-12T22:54:40;0;0;0
51258;PMS7003;37327;54.254;18.504;2023-02-12T22:57:47;2;1;0
51258;PMS7003;37327;54.254;18.504;2023-02-12T23:00:54;0;0;0
51258;PMS7003;37327;54.254;18.504;2023-02-12T23:04:01;0;0;0
51258;PMS7003;37327;54.254;18.504;2023-02-12T23:07:08;1;0;0
51258;PMS7003;37327;54.254;18.504;2023-02-12T23:10:15;0;0;0
51258;PMS7003;37327;54.254;18.504;2023-02-12T23:13:22;0;0;0
51258;PMS7003;37327;54.254;18.504;2023-02-12T23:16:30;0;0;0
51258;PMS7003;37327;54.254;18.504;2023-02-12T23:19:37;0;0;0
51258;PMS7003;37327;54.254;18.504;2023-02-12T23:22:44;0;0;0
51258;PMS7003;37327;54.254;18.504;2023-02-12T23:25:51;0;0;0
51258;PMS7003;37327;54.254;18.504;2023-02-12T23:28:59;0;0;0
51258;PMS7003;37327;54.254;18.504;2023-02-12T23:32:06;0;0;0
51258;PMS7003;37327;54.254;18.504;2023-02-12T23:35:13;0;0;0
51258;PMS7003;37327;54.254;18.504;2023-02-12T23:38:21;0;0;0
51258;PMS7003;37327;54.254;18.504;2023-02-12T23:41:28;0;0;0
51258;PMS7003;37327;54.254;18.504;2023-02-12T23:44:34;0;0;0
51258;PMS7003;37327;54.254;18.504;2023-02-12T23:47:43;2;0;0
51258;PMS7003;37327;54.254;18.504;2023-02-12T23:50:50;0;0;0
51258;PMS7003;37327;54.254;18.504;2023-02-12T23:53:57;0;0;0
51258;PMS7003;37327;54.254;18.504;2023-02-12T23:57:05;0;0;0
